Terminal Aerodrome Forecast
Issued by NWS Sioux Falls, SD

Home | Current Version | Previous Version | Text Only | Print | Product List | Glossary On
Versions: 1 2 3 4 5 6 7 8 9 10 11 12 13 14 15 16
959
FTUS43 KFSD 281104 AAC
TAFFSD
TAF AMD
KFSD 281104Z 2811/2906 VRB04KT 4SM BR SCT002
      TEMPO 2811/2813 1SM BR
     FM281500 08004KT P6SM SCT250
     FM282000 10009KT P6SM BKN200=

USA.gov is the U.S. government's official web portal to all federal, state and local government web resources and services.